サンホセ/フアン・サンタ・マリア の空港の天気 - METARとTAF

フアン・サンタ・マリア国際空港 ( MROC / SJO ) - コスタリカ サンホセ
飛行場実況気象(Metar)
観測時間02/17 08:00 CST (02/17 14:00 UTC)
風向・風速東 5m/s
視程10km以上
天気現象
なし
気温24℃
湿度54%
気圧1019hPa
METARMROC 171400Z 10009KT 060V150 CAVOK 24/14 A3009 NOSIG
過去の天気等 Google飛行場航空写真 Wunderground天気予報

過去48時間のMETAR

飛行場予報(TAF)
発表時間: 2/17 05:00 CST (2/17 11:00 UTC)
予報対象時間: 17日6時 CST ~ 18日6時 CST
風向・風速東 4m/s
視程10km以上
少しの雲 雲底高度 1070m
17日10時 CST ~ 17日11時 CST に徐々に
風向・風速西南西 4m/s
17日15時 CST ~ 17日18時 CST に一時的に
全天の8割程度の雲 雲底高度 910m
17日19時 CST ~ 17日21時 CST に徐々に
風向・風速東 5m/s
MROC 171100Z 1712/1812 08007KT 9999 FEW035 TX31/1719Z TN18/1811Z
BECMG 1716/1717 24008KT
TEMPO 1721/1724 BKN030
BECMG 1801/1803 09009KT